JBU4586 RPVE-RPLL
Flight info
| Callsign | JBU4586 |
|---|---|
| Flight time | 0h 35m |
| Altitude | 22000 |
| Route | MINOR8A MINOR B473 LAIYA LAIYA1A |
| Aircraft | A20N/M-SDE2E3FGHIRWXY/LB1 |
Departure
| Time | 2026-04-22 18:03 |
|---|---|
| Airport | Godofredo P. Ramos Airport (RPVE) |
Arrival
| Time | 2026-04-22 18:39 |
|---|---|
| Airport | Ninoy Aquino International Airport (RPLL) |
| Time | Latitude | Longitude | Altitude | Speed | Heading |
|---|---|---|---|---|---|
| 2026-04-22 17:32 | 11.92674 | 121.96369 | 42 ft | 0 kts | 148° |
| 2026-04-22 17:44 | 11.92679 | 121.96366 | 42 ft | 2 kts | 147° |
| 2026-04-22 17:45 | 11.92692 | 121.96358 | 42 ft | 2 kts | 147° |
| 2026-04-22 17:45 | 11.92704 | 121.96350 | 42 ft | 2 kts | 182° |
| 2026-04-22 17:45 | 11.92713 | 121.96355 | 41 ft | 2 kts | 240° |
| 2026-04-22 17:45 | 11.92716 | 121.96361 | 40 ft | 0 kts | 241° |
| 2026-04-22 17:51 | 11.92718 | 121.96364 | 39 ft | 0 kts | 241° |
| 2026-04-22 17:51 | 11.92717 | 121.96363 | 40 ft | 0 kts | 241° |
| 2026-04-22 17:51 | 11.92701 | 121.96332 | 43 ft | 0 kts | 241° |
| 2026-04-22 17:52 | 11.92684 | 121.96301 | 42 ft | 0 kts | 241° |
| 2026-04-22 17:53 | 11.92681 | 121.96295 | 42 ft | 3 kts | 243° |
| 2026-04-22 17:53 | 11.92666 | 121.96263 | 42 ft | 7 kts | 246° |
| 2026-04-22 17:53 | 11.92660 | 121.96206 | 43 ft | 9 kts | 301° |
| 2026-04-22 17:53 | 11.92682 | 121.96185 | 41 ft | 0 kts | 324° |
| 2026-04-22 17:55 | 11.92693 | 121.96178 | 43 ft | 7 kts | 330° |
| 2026-04-22 17:55 | 11.92740 | 121.96153 | 39 ft | 0 kts | 333° |
| 2026-04-22 18:00 | 11.92775 | 121.96135 | 35 ft | 13 kts | 333° |
| 2026-04-22 18:00 | 11.92783 | 121.96046 | 34 ft | 16 kts | 246° |
| 2026-04-22 18:01 | 11.92727 | 121.95936 | 34 ft | 19 kts | 243° |
| 2026-04-22 18:01 | 11.92662 | 121.95806 | 34 ft | 22 kts | 243° |
| 2026-04-22 18:01 | 11.92588 | 121.95660 | 31 ft | 25 kts | 243° |
| 2026-04-22 18:01 | 11.92505 | 121.95496 | 32 ft | 26 kts | 243° |
| 2026-04-22 18:02 | 11.92476 | 121.95359 | 33 ft | 18 kts | 287° |
| 2026-04-22 18:02 | 11.92441 | 121.95299 | 33 ft | 11 kts | 189° |
| 2026-04-22 18:02 | 11.92419 | 121.95321 | 32 ft | 0 kts | 67° |
| 2026-04-22 18:03 | 11.92481 | 121.95451 | 32 ft | 58 kts | 63° |
| 2026-04-22 18:03 | 11.92792 | 121.96075 | 32 ft | 136 kts | 64° |
| 2026-04-22 18:03 | 11.93216 | 121.97011 | 361 ft | 166 kts | 68° |
| 2026-04-22 18:03 | 11.93657 | 121.98128 | 1003 ft | 172 kts | 71° |
| 2026-04-22 18:04 | 11.94073 | 121.99328 | 1584 ft | 187 kts | 71° |
| 2026-04-22 18:04 | 11.94655 | 122.00621 | 2038 ft | 212 kts | 62° |
| 2026-04-22 18:04 | 11.95418 | 122.01968 | 2794 ft | 223 kts | 58° |
| 2026-04-22 18:04 | 11.96499 | 122.03127 | 3693 ft | 230 kts | 37° |
| 2026-04-22 18:05 | 11.97948 | 122.03883 | 4573 ft | 240 kts | 26° |
| 2026-04-22 18:05 | 11.99555 | 122.04595 | 5137 ft | 263 kts | 26° |
| 2026-04-22 18:05 | 12.01271 | 122.05400 | 5852 ft | 276 kts | 27° |
| 2026-04-22 18:05 | 12.03013 | 122.06254 | 6788 ft | 279 kts | 28° |
| 2026-04-22 18:06 | 12.04770 | 122.07140 | 7672 ft | 284 kts | 27° |
| 2026-04-22 18:06 | 12.06555 | 122.08054 | 8523 ft | 290 kts | 27° |
| 2026-04-22 18:06 | 12.08371 | 122.08988 | 9394 ft | 295 kts | 27° |
| 2026-04-22 18:06 | 12.10219 | 122.09938 | 10219 ft | 301 kts | 27° |
| 2026-04-22 18:07 | 12.12161 | 122.10932 | 10564 ft | 324 kts | 26° |
| 2026-04-22 18:07 | 12.14250 | 122.11997 | 10843 ft | 346 kts | 26° |
| 2026-04-22 18:07 | 12.16431 | 122.13105 | 11493 ft | 353 kts | 26° |
| 2026-04-22 18:07 | 12.18643 | 122.14227 | 12280 ft | 357 kts | 27° |
| 2026-04-22 18:08 | 12.20880 | 122.15362 | 13030 ft | 362 kts | 27° |
| 2026-04-22 18:08 | 12.23148 | 122.16511 | 13765 ft | 366 kts | 27° |
| 2026-04-22 18:08 | 12.25444 | 122.17674 | 14409 ft | 370 kts | 27° |
| 2026-04-22 18:08 | 12.27763 | 122.18848 | 15072 ft | 374 kts | 27° |
| 2026-04-22 18:09 | 12.30108 | 122.20034 | 15722 ft | 378 kts | 27° |
| 2026-04-22 18:09 | 12.32475 | 122.21227 | 16348 ft | 381 kts | 26° |
| 2026-04-22 18:09 | 12.35004 | 122.22072 | 16944 ft | 385 kts | 10° |
| 2026-04-22 18:09 | 12.37688 | 122.22161 | 17529 ft | 390 kts | 354° |
| 2026-04-22 18:10 | 12.40322 | 122.21478 | 18087 ft | 394 kts | 338° |
| 2026-04-22 18:10 | 12.42715 | 122.20097 | 18587 ft | 398 kts | 325° |
| 2026-04-22 18:10 | 12.44918 | 122.18369 | 19125 ft | 400 kts | 322° |
| 2026-04-22 18:10 | 12.47089 | 122.16584 | 19662 ft | 402 kts | 322° |
| 2026-04-22 18:11 | 12.49309 | 122.14831 | 20178 ft | 405 kts | 324° |
| 2026-04-22 18:11 | 12.51592 | 122.13133 | 20700 ft | 407 kts | 325° |
| 2026-04-22 18:11 | 12.53924 | 122.11473 | 21203 ft | 410 kts | 326° |
| 2026-04-22 18:11 | 12.56293 | 122.09826 | 21641 ft | 413 kts | 327° |
| 2026-04-22 18:12 | 12.58645 | 122.08204 | 21823 ft | 414 kts | 327° |
| 2026-04-22 18:12 | 12.61066 | 122.06537 | 21888 ft | 414 kts | 327° |
| 2026-04-22 18:12 | 12.62647 | 122.05447 | 21890 ft | 414 kts | 327° |
| 2026-04-22 18:12 | 12.65840 | 122.03241 | 21890 ft | 413 kts | 327° |
| 2026-04-22 18:13 | 12.68219 | 122.01593 | 21888 ft | 413 kts | 327° |
| 2026-04-22 18:13 | 12.70571 | 121.99962 | 21892 ft | 414 kts | 327° |
| 2026-04-22 18:13 | 12.72951 | 121.98311 | 21890 ft | 414 kts | 327° |
| 2026-04-22 18:13 | 12.75333 | 121.96657 | 21889 ft | 413 kts | 327° |
| 2026-04-22 18:14 | 12.77712 | 121.95004 | 21887 ft | 413 kts | 327° |
| 2026-04-22 18:14 | 12.80090 | 121.93351 | 21889 ft | 413 kts | 327° |
| 2026-04-22 18:14 | 12.82471 | 121.91695 | 21889 ft | 413 kts | 327° |
| 2026-04-22 18:14 | 12.84848 | 121.90041 | 21891 ft | 413 kts | 327° |
| 2026-04-22 18:15 | 12.87225 | 121.88387 | 21891 ft | 413 kts | 327° |
| 2026-04-22 18:15 | 12.89602 | 121.86732 | 21887 ft | 413 kts | 327° |
| 2026-04-22 18:15 | 12.91979 | 121.85076 | 21888 ft | 413 kts | 327° |
| 2026-04-22 18:15 | 12.94355 | 121.83421 | 21888 ft | 413 kts | 327° |
| 2026-04-22 18:16 | 12.96729 | 121.81766 | 21886 ft | 413 kts | 327° |
| 2026-04-22 18:16 | 12.99105 | 121.80110 | 21889 ft | 413 kts | 327° |
| 2026-04-22 18:16 | 13.01478 | 121.78455 | 21893 ft | 413 kts | 327° |
| 2026-04-22 18:16 | 13.03850 | 121.76801 | 21892 ft | 413 kts | 327° |
| 2026-04-22 18:17 | 13.06223 | 121.75144 | 21892 ft | 412 kts | 327° |
| 2026-04-22 18:17 | 13.08594 | 121.73490 | 21895 ft | 412 kts | 326° |
| 2026-04-22 18:17 | 13.10967 | 121.71833 | 21892 ft | 412 kts | 326° |
| 2026-04-22 18:17 | 13.13337 | 121.70178 | 21895 ft | 412 kts | 326° |
| 2026-04-22 18:18 | 13.15706 | 121.68523 | 21897 ft | 412 kts | 326° |
| 2026-04-22 18:18 | 13.18077 | 121.66866 | 21898 ft | 412 kts | 326° |
| 2026-04-22 18:18 | 13.20446 | 121.65210 | 21896 ft | 412 kts | 326° |
| 2026-04-22 18:18 | 13.22781 | 121.63578 | 21897 ft | 412 kts | 326° |
| 2026-04-22 18:19 | 13.25148 | 121.61922 | 21896 ft | 412 kts | 326° |
| 2026-04-22 18:19 | 13.27511 | 121.60268 | 21897 ft | 411 kts | 326° |
| 2026-04-22 18:19 | 13.29827 | 121.58648 | 21895 ft | 411 kts | 326° |
| 2026-04-22 18:19 | 13.32239 | 121.56960 | 21895 ft | 411 kts | 326° |
| 2026-04-22 18:20 | 13.34594 | 121.55312 | 21895 ft | 411 kts | 326° |
| 2026-04-22 18:20 | 13.36962 | 121.53653 | 21894 ft | 411 kts | 326° |
| 2026-04-22 18:20 | 13.39322 | 121.52000 | 21895 ft | 411 kts | 326° |
| 2026-04-22 18:20 | 13.41683 | 121.50345 | 21895 ft | 411 kts | 326° |
| 2026-04-22 18:21 | 13.44042 | 121.48692 | 21894 ft | 411 kts | 326° |
| 2026-04-22 18:21 | 13.46403 | 121.47036 | 21896 ft | 411 kts | 326° |
| 2026-04-22 18:21 | 13.48760 | 121.45384 | 21896 ft | 411 kts | 326° |
| 2026-04-22 18:21 | 13.51120 | 121.43728 | 21896 ft | 411 kts | 326° |
| 2026-04-22 18:22 | 13.53448 | 121.42095 | 21716 ft | 411 kts | 326° |
| 2026-04-22 18:22 | 13.55802 | 121.40443 | 21479 ft | 409 kts | 326° |
| 2026-04-22 18:22 | 13.58144 | 121.38798 | 21227 ft | 407 kts | 326° |
| 2026-04-22 18:22 | 13.60483 | 121.37165 | 20885 ft | 407 kts | 327° |
| 2026-04-22 18:23 | 13.62834 | 121.35530 | 20283 ft | 409 kts | 327° |
| 2026-04-22 18:23 | 13.65177 | 121.33900 | 19644 ft | 403 kts | 327° |
| 2026-04-22 18:23 | 13.67461 | 121.32308 | 19105 ft | 394 kts | 327° |
| 2026-04-22 18:24 | 13.71982 | 121.29153 | 17944 ft | 391 kts | 327° |
| 2026-04-22 18:24 | 13.74221 | 121.27591 | 17368 ft | 387 kts | 327° |
| 2026-04-22 18:24 | 13.78639 | 121.24509 | 16233 ft | 380 kts | 327° |
| 2026-04-22 18:25 | 13.80821 | 121.22987 | 15679 ft | 378 kts | 327° |
| 2026-04-22 18:25 | 13.82990 | 121.21473 | 15114 ft | 375 kts | 327° |
| 2026-04-22 18:25 | 13.85142 | 121.19972 | 14556 ft | 373 kts | 328° |
| 2026-04-22 18:26 | 13.89396 | 121.17002 | 13453 ft | 361 kts | 328° |
| 2026-04-22 18:26 | 13.91435 | 121.15576 | 12918 ft | 349 kts | 328° |
| 2026-04-22 18:26 | 13.93421 | 121.14190 | 12412 ft | 343 kts | 329° |
| 2026-04-22 18:26 | 13.95514 | 121.13030 | 11905 ft | 340 kts | 339° |
| 2026-04-22 18:27 | 13.97742 | 121.12259 | 11408 ft | 337 kts | 349° |
| 2026-04-22 18:27 | 14.00041 | 121.11821 | 10909 ft | 335 kts | 353° |
| 2026-04-22 18:27 | 14.02334 | 121.11445 | 10469 ft | 331 kts | 353° |
| 2026-04-22 18:27 | 14.04575 | 121.11061 | 10286 ft | 320 kts | 353° |
| 2026-04-22 18:28 | 14.06719 | 121.10671 | 10159 ft | 307 kts | 352° |
| 2026-04-22 18:28 | 14.08796 | 121.10276 | 9856 ft | 302 kts | 352° |
| 2026-04-22 18:28 | 14.10829 | 121.09880 | 9697 ft | 294 kts | 352° |
| 2026-04-22 18:28 | 14.12855 | 121.09483 | 9478 ft | 300 kts | 352° |
| 2026-04-22 18:29 | 14.14913 | 121.09083 | 9215 ft | 299 kts | 352° |
| 2026-04-22 18:29 | 14.16953 | 121.08686 | 8876 ft | 298 kts | 351° |
| 2026-04-22 18:29 | 14.18983 | 121.08294 | 8489 ft | 296 kts | 351° |
| 2026-04-22 18:29 | 14.20997 | 121.07906 | 8102 ft | 294 kts | 351° |
| 2026-04-22 18:30 | 14.23000 | 121.07520 | 7724 ft | 292 kts | 351° |
| 2026-04-22 18:30 | 14.26649 | 121.05919 | 6962 ft | 291 kts | 314° |
| 2026-04-22 18:30 | 14.27784 | 121.04205 | 6596 ft | 290 kts | 300° |
| 2026-04-22 18:31 | 14.28693 | 121.02354 | 6243 ft | 288 kts | 297° |
| 2026-04-22 18:31 | 14.29562 | 121.00498 | 5868 ft | 286 kts | 297° |
| 2026-04-22 18:31 | 14.30445 | 120.98669 | 5495 ft | 284 kts | 298° |
| 2026-04-22 18:31 | 14.31353 | 120.96866 | 5115 ft | 282 kts | 299° |
| 2026-04-22 18:32 | 14.32278 | 120.95087 | 4740 ft | 280 kts | 300° |
| 2026-04-22 18:32 | 14.33211 | 120.93332 | 4354 ft | 279 kts | 300° |
| 2026-04-22 18:32 | 14.34147 | 120.91584 | 3938 ft | 278 kts | 300° |
| 2026-04-22 18:32 | 14.35086 | 120.89837 | 3515 ft | 279 kts | 300° |
| 2026-04-22 18:33 | 14.36019 | 120.88099 | 3235 ft | 273 kts | 300° |
| 2026-04-22 18:33 | 14.36920 | 120.86417 | 3104 ft | 262 kts | 300° |
| 2026-04-22 18:33 | 14.37864 | 120.84868 | 3015 ft | 249 kts | 315° |
| 2026-04-22 18:33 | 14.39287 | 120.83981 | 2930 ft | 235 kts | 349° |
| 2026-04-22 18:34 | 14.40844 | 120.84055 | 2843 ft | 220 kts | 26° |
| 2026-04-22 18:34 | 14.41881 | 120.85069 | 2770 ft | 200 kts | 67° |
| 2026-04-22 18:34 | 14.42369 | 120.86335 | 2788 ft | 189 kts | 70° |
| 2026-04-22 18:34 | 14.42881 | 120.87551 | 2677 ft | 178 kts | 65° |
| 2026-04-22 18:35 | 14.43445 | 120.88611 | 2484 ft | 158 kts | 60° |
| 2026-04-22 18:35 | 14.43974 | 120.89529 | 2289 ft | 141 kts | 62° |
| 2026-04-22 18:35 | 14.44439 | 120.90368 | 2117 ft | 132 kts | 61° |
| 2026-04-22 18:35 | 14.44897 | 120.91196 | 1949 ft | 132 kts | 62° |
| 2026-04-22 18:36 | 14.45350 | 120.92013 | 1778 ft | 130 kts | 61° |
| 2026-04-22 18:36 | 14.45799 | 120.92825 | 1619 ft | 130 kts | 61° |
| 2026-04-22 18:36 | 14.46244 | 120.93628 | 1445 ft | 128 kts | 62° |
| 2026-04-22 18:36 | 14.46688 | 120.94431 | 1282 ft | 129 kts | 61° |
| 2026-04-22 18:37 | 14.47133 | 120.95236 | 1113 ft | 129 kts | 61° |
| 2026-04-22 18:37 | 14.47577 | 120.96039 | 948 ft | 128 kts | 60° |
| 2026-04-22 18:37 | 14.47874 | 120.96575 | 835 ft | 128 kts | 60° |
| 2026-04-22 18:37 | 14.48458 | 120.97631 | 616 ft | 127 kts | 60° |
| 2026-04-22 18:38 | 14.48893 | 120.98418 | 431 ft | 125 kts | 60° |
| 2026-04-22 18:38 | 14.49332 | 120.99215 | 257 ft | 129 kts | 60° |
| 2026-04-22 18:38 | 14.49760 | 121.00008 | 180 ft | 125 kts | 61° |
| 2026-04-22 18:39 | 14.50667 | 121.01585 | 65 ft | 97 kts | 60° |
| 2026-04-22 18:39 | 14.50855 | 121.01929 | 63 ft | 39 kts | 61° |
| 2026-04-22 18:39 | 14.50940 | 121.02004 | 67 ft | 9 kts | 346° |
| 2026-04-22 18:39 | 14.50982 | 121.01976 | 63 ft | 13 kts | 319° |
| 2026-04-22 18:40 | 14.51082 | 121.01873 | 69 ft | 17 kts | 315° |
| 2026-04-22 18:40 | 14.51141 | 121.01811 | 66 ft | 19 kts | 315° |
| 2026-04-22 18:40 | 14.51244 | 121.01705 | 63 ft | 22 kts | 315° |
| 2026-04-22 18:40 | 14.51353 | 121.01593 | 68 ft | 20 kts | 315° |
| 2026-04-22 18:41 | 14.51332 | 121.01496 | 68 ft | 15 kts | 229° |
| 2026-04-22 18:41 | 14.51258 | 121.01403 | 65 ft | 18 kts | 224° |
| 2026-04-22 18:41 | 14.51156 | 121.01392 | 60 ft | 17 kts | 142° |
| 2026-04-22 18:41 | 14.51068 | 121.01482 | 68 ft | 19 kts | 134° |
| 2026-04-22 18:42 | 14.50980 | 121.01576 | 64 ft | 14 kts | 134° |
| 2026-04-22 18:42 | 14.50895 | 121.01569 | 62 ft | 15 kts | 229° |
| 2026-04-22 18:42 | 14.50882 | 121.01522 | 66 ft | 2 kts | 299° |
| 2026-04-22 18:42 | 14.50909 | 121.01492 | 62 ft | 9 kts | 315° |
| 2026-04-22 18:43 | 14.50949 | 121.01450 | 68 ft | 0 kts | 314° |